createdAt,value
2023-04-16T00:00:08.910Z,28.94
2023-04-16T00:05:12.475Z,28.64
2023-04-16T00:10:17.664Z,29.39
2023-04-16T00:15:22.935Z,29.71
2023-04-16T00:20:26.405Z,29.60
2023-04-16T00:25:31.511Z,29.55
2023-04-16T00:30:35.384Z,29.73
2023-04-16T00:35:39.373Z,30.81
2023-04-16T00:40:44.575Z,31.10
2023-04-16T00:45:48.473Z,30.54
2023-04-16T00:50:52.030Z,30.05
2023-04-16T00:55:58.395Z,29.97
2023-04-16T01:01:02.234Z,29.60
2023-04-16T01:06:07.538Z,30.33
2023-04-16T01:11:13.257Z,31.53
2023-04-16T01:16:16.997Z,31.88
2023-04-16T01:21:22.074Z,31.52
2023-04-16T01:26:25.285Z,31.10
2023-04-16T01:31:28.787Z,31.03
2023-04-16T01:36:34.015Z,31.64
2023-04-16T01:41:37.523Z,30.95
2023-04-16T01:46:41.313Z,30.59
2023-04-16T01:51:46.166Z,30.82
2023-04-16T01:56:49.710Z,30.64
2023-04-16T02:01:53.236Z,30.37
2023-04-16T02:06:58.109Z,30.48
2023-04-16T02:12:02.289Z,30.45
2023-04-16T02:17:06.366Z,31.16
2023-04-16T02:22:11.334Z,31.32
2023-04-16T02:27:14.669Z,30.59
2023-04-16T02:32:18.519Z,30.89
2023-04-16T02:37:23.448Z,31.08
2023-04-16T02:42:27.012Z,31.31
2023-04-16T02:47:30.738Z,31.02
2023-04-16T02:52:35.874Z,31.50
2023-04-16T02:57:39.465Z,31.60
2023-04-16T03:02:43.091Z,31.76
2023-04-16T03:07:47.968Z,31.51
2023-04-16T03:12:51.521Z,31.34
2023-04-16T03:17:55.218Z,31.31
2023-04-16T03:23:00.478Z,30.89
2023-04-16T03:28:04.238Z,31.00
2023-04-16T03:33:07.957Z,30.83
2023-04-16T03:38:12.855Z,30.17
2023-04-16T03:43:16.191Z,30.77
2023-04-16T03:48:19.716Z,29.63
2023-04-16T03:53:24.593Z,29.22
2023-04-16T03:58:28.099Z,29.03
2023-04-16T04:03:31.676Z,28.71
2023-04-16T04:08:37.126Z,23.80
2023-04-16T04:13:40.890Z,21.66
2023-04-16T04:18:44.668Z,20.52
2023-04-16T04:23:49.612Z,19.39
2023-04-16T04:28:52.792Z,19.43
2023-04-16T04:33:56.257Z,18.17
2023-04-16T04:39:01.219Z,19.62
2023-04-16T04:44:04.995Z,19.30
2023-04-16T04:49:08.867Z,18.51
2023-04-16T04:54:13.980Z,18.63
2023-04-16T04:59:17.181Z,17.20
2023-04-16T05:04:20.792Z,15.95
2023-04-16T05:09:25.980Z,14.72
2023-04-16T05:14:29.470Z,15.45
2023-04-16T05:19:32.931Z,15.70
2023-04-16T05:24:37.814Z,15.13
2023-04-16T05:29:41.524Z,15.24
2023-04-16T05:34:44.994Z,13.93
2023-04-16T05:39:50.232Z,12.35
2023-04-16T05:44:53.934Z,11.40
2023-04-16T05:49:57.454Z,10.36
2023-04-16T05:55:02.368Z,9.54
2023-04-16T06:00:08.908Z,8.25
2023-04-16T06:05:12.471Z,7.81
2023-04-16T06:10:17.707Z,6.77
2023-04-16T06:15:21.444Z,7.35
2023-04-16T06:20:24.702Z,7.78
2023-04-16T06:25:29.537Z,5.91
2023-04-16T06:30:33.054Z,5.89
2023-04-16T06:35:36.291Z,6.51
2023-04-16T06:40:41.263Z,6.35
2023-04-16T06:45:44.765Z,6.50
2023-04-16T06:50:48.325Z,5.84
2023-04-16T06:55:52.888Z,7.00
2023-04-16T07:00:56.438Z,6.44
2023-04-16T07:05:59.935Z,7.20
2023-04-16T07:11:04.843Z,6.83
2023-04-16T07:16:08.660Z,7.58
2023-04-16T07:21:12.114Z,7.98
2023-04-16T07:26:18.332Z,8.46
2023-04-16T07:31:22.219Z,9.18
2023-04-16T07:36:27.902Z,9.79
2023-04-16T07:41:32.844Z,10.65
2023-04-16T07:46:46.345Z,10.13
2023-04-16T07:51:51.221Z,9.50
2023-04-16T07:56:56.471Z,9.12
2023-04-16T08:02:00.274Z,8.42
2023-04-16T08:07:04.035Z,8.26
2023-04-16T08:12:09.085Z,8.47
2023-04-16T08:17:12.626Z,8.95
2023-04-16T08:22:16.813Z,9.20
2023-04-16T08:27:21.748Z,9.63
2023-04-16T08:32:26.105Z,9.40
2023-04-16T08:37:29.897Z,9.71
2023-04-16T08:42:42.254Z,10.07
2023-04-16T08:47:48.796Z,10.38
2023-04-16T08:52:54.296Z,10.23
2023-04-16T08:58:00.907Z,10.83
2023-04-16T09:03:05.806Z,10.63
2023-04-16T09:08:09.901Z,10.62
2023-04-16T09:13:17.069Z,10.89
2023-04-16T09:18:21.838Z,10.93
2023-04-16T09:23:26.250Z,11.42
2023-04-16T09:28:45.782Z,11.60
2023-04-16T09:34:03.487Z,12.00
2023-04-16T09:39:07.574Z,12.00
2023-04-16T09:44:12.836Z,12.26
2023-04-16T09:49:18.755Z,12.20
2023-04-16T09:54:22.495Z,12.62
2023-04-16T09:59:34.023Z,12.28
2023-04-16T10:04:48.010Z,12.37
2023-04-16T10:09:52.761Z,12.38
2023-04-16T10:14:57.515Z,13.06
2023-04-16T10:20:03.020Z,12.67
2023-04-16T10:25:09.097Z,12.06
2023-04-16T10:30:17.009Z,11.90
2023-04-16T10:35:21.661Z,11.93
2023-04-16T10:40:26.652Z,12.22
2023-04-16T10:45:39.339Z,12.71
2023-04-16T10:50:42.841Z,13.05
2023-04-16T10:56:12.366Z,13.52
2023-04-16T11:01:17.537Z,13.63
2023-04-16T11:06:27.112Z,13.98
2023-04-16T11:11:39.535Z,13.61
2023-04-16T11:16:44.536Z,13.93
2023-04-16T11:21:48.117Z,13.54
2023-04-16T11:26:53.302Z,14.06
2023-04-16T11:31:58.469Z,14.26
2023-04-16T11:37:01.987Z,14.12
2023-04-16T11:42:05.784Z,14.58
2023-04-16T11:47:13.932Z,14.32
2023-04-16T11:52:27.746Z,14.53
2023-04-16T11:57:32.638Z,14.13
2023-04-16T12:02:38.059Z,14.25
2023-04-16T12:07:47.569Z,14.55
2023-04-16T12:12:51.346Z,14.32
2023-04-16T12:18:08.599Z,14.17
2023-04-16T12:23:14.073Z,14.29
2023-04-16T12:28:29.079Z,14.63
2023-04-16T12:33:33.707Z,14.96
2023-04-16T12:38:37.199Z,14.40
2023-04-16T12:43:40.782Z,15.00
2023-04-16T12:48:46.266Z,14.75
2023-04-16T12:53:50.203Z,14.27
2023-04-16T12:58:53.836Z,14.96
2023-04-16T13:03:58.935Z,14.74
2023-04-16T13:09:02.583Z,14.90
2023-04-16T13:14:06.569Z,14.71
2023-04-16T13:19:11.890Z,14.77
2023-04-16T13:24:15.612Z,14.33
2023-04-16T13:29:19.084Z,14.87
2023-04-16T13:34:24.302Z,14.88
2023-04-16T13:39:27.894Z,14.83
2023-04-16T13:44:31.667Z,14.70
2023-04-16T13:49:36.735Z,15.33
2023-04-16T13:54:40.679Z,15.40
2023-04-16T13:59:44.192Z,15.15
2023-04-16T14:04:49.090Z,15.29
2023-04-16T14:09:52.547Z,15.84
2023-04-16T14:14:56.158Z,15.39
2023-04-16T14:20:01.056Z,15.99
2023-04-16T14:25:05.379Z,15.54
2023-04-16T14:30:09.834Z,16.01
2023-04-16T14:35:14.980Z,15.34
2023-04-16T14:40:18.453Z,15.41
2023-04-16T14:45:22.214Z,15.63
2023-04-16T14:50:27.230Z,15.28
2023-04-16T14:55:30.931Z,15.08
2023-04-16T15:00:36.058Z,14.85
2023-04-16T15:05:41.392Z,15.55
2023-04-16T15:10:45.975Z,15.47
2023-04-16T15:15:49.663Z,15.36
2023-04-16T15:20:55.952Z,15.68
2023-04-16T15:25:59.920Z,16.18
2023-04-16T15:31:03.505Z,16.07
2023-04-16T15:36:08.953Z,16.13
2023-04-16T15:41:12.563Z,16.49
2023-04-16T15:46:16.505Z,16.33
2023-04-16T15:51:21.850Z,16.38
2023-04-16T15:56:25.499Z,16.57
2023-04-16T16:01:28.967Z,16.33
2023-04-16T16:06:33.949Z,17.05
2023-04-16T16:11:38.548Z,16.80
2023-04-16T16:16:42.382Z,17.28
2023-04-16T16:21:47.549Z,17.32
2023-04-16T16:26:51.216Z,17.16
2023-04-16T16:31:54.876Z,17.25
2023-04-16T16:36:59.922Z,17.42
2023-04-16T16:42:03.496Z,17.44
2023-04-16T16:47:07.137Z,17.30
2023-04-16T16:52:12.154Z,17.63
2023-04-16T16:57:15.767Z,17.74
2023-04-16T17:02:19.763Z,17.80
2023-04-16T17:07:24.792Z,17.99
2023-04-16T17:12:28.560Z,17.90
2023-04-16T17:17:32.840Z,17.92
2023-04-16T17:22:38.810Z,18.15
2023-04-16T17:27:42.616Z,18.23
2023-04-16T17:32:46.322Z,18.47
2023-04-16T17:37:51.201Z,18.43
2023-04-16T17:42:54.383Z,18.82
2023-04-16T17:47:57.908Z,18.92
2023-04-16T17:53:03.781Z,19.59
2023-04-16T17:58:07.548Z,20.76
2023-04-16T18:03:11.707Z,20.89
2023-04-16T18:08:16.864Z,22.26
2023-04-16T18:13:20.598Z,22.34
2023-04-16T18:18:24.093Z,22.68
2023-04-16T18:23:28.994Z,23.73
2023-04-16T18:28:32.404Z,22.86
2023-04-16T18:33:53.957Z,23.41
2023-04-16T18:39:02.651Z,24.40
2023-04-16T18:44:06.918Z,24.63
2023-04-16T18:49:10.838Z,24.30
2023-04-16T18:54:16.774Z,25.03
2023-04-16T18:59:20.367Z,25.44
2023-04-16T19:04:24.101Z,25.35
2023-04-16T19:09:29.098Z,25.59
2023-04-16T19:14:32.313Z,24.70
2023-04-16T19:19:36.059Z,25.95
2023-04-16T19:24:40.988Z,26.42
2023-04-16T19:29:45.526Z,24.80
2023-04-16T19:34:49.006Z,26.14
2023-04-16T19:39:54.922Z,27.02
2023-04-16T19:44:58.513Z,27.59
2023-04-16T19:50:02.355Z,27.16
2023-04-16T19:55:10.124Z,27.38
2023-04-16T20:00:14.649Z,27.02
2023-04-16T20:05:18.568Z,28.40
2023-04-16T20:10:23.502Z,28.71
2023-04-16T20:15:27.410Z,28.87
2023-04-16T20:20:30.912Z,28.47
2023-04-16T20:25:35.828Z,29.75
2023-04-16T20:30:40.059Z,29.22
2023-04-16T20:35:43.741Z,29.06
2023-04-16T20:40:48.599Z,29.99
2023-04-16T20:45:52.498Z,30.15
2023-04-16T20:50:59.735Z,30.53
2023-04-16T20:56:04.726Z,30.54
2023-04-16T21:01:08.560Z,30.50
2023-04-16T21:06:14.576Z,30.26
2023-04-16T21:11:19.701Z,30.16
2023-04-16T21:16:23.392Z,29.59
2023-04-16T21:21:27.652Z,29.81
2023-04-16T21:26:32.620Z,29.93
2023-04-16T21:31:35.846Z,29.86
2023-04-16T21:36:39.330Z,30.70
2023-04-16T21:41:44.239Z,30.69
2023-04-16T21:46:47.459Z,29.72
2023-04-16T21:51:59.320Z,30.79
2023-04-16T21:57:04.617Z,31.40
2023-04-16T22:02:08.218Z,31.38
2023-04-16T22:07:11.938Z,31.79
2023-04-16T22:12:17.192Z,32.16
2023-04-16T22:17:20.799Z,32.76
2023-04-16T22:22:24.691Z,32.64
2023-04-16T22:27:29.539Z,33.59
2023-04-16T22:32:33.370Z,33.25
2023-04-16T22:37:37.096Z,34.07
2023-04-16T22:42:42.103Z,34.60
2023-04-16T22:47:45.670Z,33.81
2023-04-16T22:52:49.198Z,33.73
2023-04-16T22:57:54.307Z,35.05
2023-04-16T23:02:58.009Z,33.93
2023-04-16T23:08:01.579Z,34.69
2023-04-16T23:13:06.668Z,35.91
2023-04-16T23:18:09.923Z,35.72
2023-04-16T23:23:13.370Z,35.58
2023-04-16T23:28:18.451Z,36.42
2023-04-16T23:33:22.472Z,36.73
2023-04-16T23:38:25.950Z,36.92
2023-04-16T23:43:31.009Z,37.38
2023-04-16T23:48:34.335Z,35.87
2023-04-16T23:53:37.733Z,37.01
2023-04-16T23:58:42.648Z,36.97
